createdAt,value
2024-03-09T00:00:27.008Z,11.55
2024-03-09T00:02:55.773Z,13.18
2024-03-09T00:05:25.942Z,13.23
2024-03-09T00:07:57.778Z,12.82
2024-03-09T00:10:26.049Z,13.85
2024-03-09T00:12:54.413Z,10.25
2024-03-09T00:15:24.659Z,11.20
2024-03-09T00:17:54.590Z,12.43
2024-03-09T00:20:24.446Z,12.30
2024-03-09T00:22:56.990Z,13.90
2024-03-09T00:25:24.525Z,12.82
2024-03-09T00:27:53.683Z,12.02
2024-03-09T00:30:21.418Z,11.68
2024-03-09T00:32:50.446Z,13.07
2024-03-09T00:35:20.140Z,12.27
2024-03-09T00:37:47.572Z,11.90
2024-03-09T00:40:15.427Z,12.57
2024-03-09T00:42:42.771Z,12.23
2024-03-09T00:45:11.136Z,12.57
2024-03-09T00:47:38.964Z,11.40
2024-03-09T00:50:10.898Z,11.40
2024-03-09T00:52:39.629Z,12.15
2024-03-09T00:55:11.618Z,11.30
2024-03-09T00:57:39.419Z,12.35
2024-03-09T01:00:12.518Z,12.35
2024-03-09T01:02:42.268Z,12.60
2024-03-09T01:05:10.372Z,12.90
2024-03-09T01:07:39.191Z,11.43
2024-03-09T01:10:10.301Z,11.73
2024-03-09T01:12:37.711Z,12.13
2024-03-09T01:15:07.943Z,11.65
2024-03-09T01:17:37.541Z,12.73
2024-03-09T01:20:07.695Z,11.85
2024-03-09T01:22:35.221Z,12.63
2024-03-09T01:25:09.623Z,13.30
2024-03-09T01:27:38.461Z,13.35
2024-03-09T01:30:07.177Z,14.70
2024-03-09T01:32:34.575Z,12.27
2024-03-09T01:35:03.502Z,12.80
2024-03-09T01:37:30.966Z,11.95
2024-03-09T01:39:58.521Z,13.82
2024-03-09T01:42:28.223Z,11.68
2024-03-09T01:44:59.097Z,13.05
2024-03-09T01:47:27.585Z,11.82
2024-03-09T01:49:57.656Z,12.82
2024-03-09T01:52:34.333Z,11.55
2024-03-09T01:55:07.724Z,11.60
2024-03-09T01:57:35.038Z,13.38
2024-03-09T02:00:04.416Z,14.93
2024-03-09T02:02:32.049Z,12.88
2024-03-09T02:04:59.660Z,13.13
2024-03-09T02:07:26.973Z,13.38
2024-03-09T02:09:54.374Z,13.18
2024-03-09T02:12:24.365Z,12.80
2024-03-09T02:14:51.578Z,13.70
2024-03-09T02:17:20.034Z,13.82
2024-03-09T02:19:47.108Z,15.57
2024-03-09T02:22:17.428Z,13.77
2024-03-09T02:24:56.231Z,13.85
2024-03-09T02:27:27.098Z,13.80
2024-03-09T02:29:54.761Z,14.65
2024-03-09T02:32:25.318Z,14.73
2024-03-09T02:34:52.441Z,14.20
2024-03-09T02:37:21.000Z,14.57
2024-03-09T02:39:48.589Z,15.48
2024-03-09T02:42:17.158Z,15.60
2024-03-09T02:44:44.394Z,13.85
2024-03-09T02:47:11.874Z,14.38
2024-03-09T02:49:40.287Z,14.57
2024-03-09T02:52:08.664Z,15.35
2024-03-09T02:54:37.591Z,13.73
2024-03-09T02:57:07.719Z,14.27
2024-03-09T02:59:36.958Z,16.58
2024-03-09T03:02:15.839Z,14.90
2024-03-09T03:04:43.201Z,14.40
2024-03-09T03:07:10.488Z,14.43
2024-03-09T03:09:38.079Z,16.08
2024-03-09T03:12:09.219Z,15.20
2024-03-09T03:14:40.911Z,15.82
2024-03-09T03:17:08.665Z,14.95
2024-03-09T03:19:36.076Z,15.40
2024-03-09T03:22:03.263Z,14.55
2024-03-09T03:24:30.375Z,16.00
2024-03-09T03:26:58.930Z,16.35
2024-03-09T03:29:28.801Z,15.25
2024-03-09T03:31:58.247Z,15.43
2024-03-09T03:34:29.363Z,14.80
2024-03-09T03:36:57.069Z,15.77
2024-03-09T03:39:24.482Z,15.75
2024-03-09T03:41:53.639Z,15.48
2024-03-09T03:44:20.888Z,15.95
2024-03-09T03:46:48.489Z,16.55
2024-03-09T03:49:17.302Z,14.65
2024-03-09T03:51:44.562Z,16.58
2024-03-09T03:54:11.956Z,15.18
2024-03-09T03:56:39.298Z,14.93
2024-03-09T03:59:06.610Z,16.17
2024-03-09T04:01:33.859Z,19.15
2024-03-09T04:04:01.308Z,17.02
2024-03-09T04:06:29.890Z,16.50
2024-03-09T04:08:58.729Z,16.75
2024-03-09T04:11:33.436Z,16.80
2024-03-09T04:14:00.715Z,15.55
2024-03-09T04:16:28.071Z,15.48
2024-03-09T04:18:55.262Z,16.00
2024-03-09T04:21:22.597Z,16.27
2024-03-09T04:23:51.286Z,16.77
2024-03-09T04:26:18.514Z,16.00
2024-03-09T04:28:45.989Z,16.45
2024-03-09T04:31:13.344Z,17.52
2024-03-09T04:33:41.630Z,17.95
2024-03-09T04:36:09.479Z,17.90
2024-03-09T04:38:36.698Z,16.85
2024-03-09T04:41:05.482Z,15.68
2024-03-09T04:43:33.697Z,17.80
2024-03-09T04:46:01.547Z,16.85
2024-03-09T04:48:29.139Z,17.13
2024-03-09T04:50:56.501Z,18.92
2024-03-09T04:53:23.697Z,16.63
2024-03-09T04:55:53.121Z,17.58
2024-03-09T04:58:23.043Z,15.55
2024-03-09T05:00:50.245Z,16.90
2024-03-09T05:03:19.235Z,16.30
2024-03-09T05:05:46.445Z,14.85
2024-03-09T05:08:13.768Z,17.50
2024-03-09T05:10:41.411Z,18.33
2024-03-09T05:13:09.499Z,16.40
2024-03-09T05:15:38.857Z,16.27
2024-03-09T05:18:11.209Z,16.83
2024-03-09T05:20:39.428Z,16.88
2024-03-09T05:23:13.033Z,18.63
2024-03-09T05:25:43.303Z,15.35
2024-03-09T05:28:15.037Z,16.88
2024-03-09T05:30:45.318Z,17.42
2024-03-09T05:33:13.604Z,18.48
2024-03-09T05:35:41.599Z,19.02
2024-03-09T05:38:10.398Z,18.13
2024-03-09T05:40:38.538Z,16.42
2024-03-09T05:43:08.584Z,17.67
2024-03-09T05:45:37.053Z,16.90
2024-03-09T05:48:07.628Z,17.02
2024-03-09T05:50:37.343Z,18.77
2024-03-09T05:53:05.944Z,15.20
2024-03-09T05:55:33.497Z,17.50
2024-03-09T05:58:01.041Z,16.65
2024-03-09T06:00:30.870Z,15.75
2024-03-09T06:03:03.656Z,15.82
2024-03-09T06:05:33.309Z,16.42
2024-03-09T06:08:03.622Z,13.02
2024-03-09T06:10:31.787Z,15.93
2024-03-09T06:12:59.068Z,13.80
2024-03-09T06:15:27.139Z,15.90
2024-03-09T06:17:58.450Z,15.20
2024-03-09T06:20:28.274Z,16.92
2024-03-09T06:22:58.798Z,15.88
2024-03-09T06:25:31.376Z,16.20
2024-03-09T06:28:01.309Z,15.73
2024-03-09T06:30:31.590Z,15.95
2024-03-09T06:33:02.669Z,14.60
2024-03-09T06:35:31.562Z,15.25
2024-03-09T06:38:02.123Z,14.23
2024-03-09T06:40:32.538Z,15.63
2024-03-09T06:43:00.105Z,14.85
2024-03-09T06:45:30.427Z,13.82
2024-03-09T06:48:01.334Z,14.13
2024-03-09T06:50:29.782Z,14.25
2024-03-09T06:52:57.361Z,14.65
2024-03-09T06:55:30.419Z,14.35
2024-03-09T06:58:03.637Z,13.05
2024-03-09T07:00:33.781Z,15.48
2024-03-09T07:03:01.082Z,14.77
2024-03-09T07:05:39.044Z,13.75
2024-03-09T07:08:11.249Z,13.80
2024-03-09T07:10:40.373Z,15.32
2024-03-09T07:13:07.641Z,15.57
2024-03-09T07:15:34.880Z,15.10
2024-03-09T07:18:02.360Z,15.13
2024-03-09T07:20:30.325Z,15.00
2024-03-09T07:22:58.526Z,14.52
2024-03-09T07:25:28.999Z,13.65
2024-03-09T07:27:59.641Z,15.75
2024-03-09T07:30:27.668Z,15.48
2024-03-09T07:32:57.465Z,14.27
2024-03-09T07:35:29.797Z,15.20
2024-03-09T07:38:01.431Z,13.88
2024-03-09T07:40:34.110Z,13.60
2024-03-09T07:43:03.141Z,14.05
2024-03-09T07:45:31.680Z,15.23
2024-03-09T07:48:04.633Z,15.10
2024-03-09T07:50:34.219Z,14.82
2024-03-09T07:53:01.949Z,14.88
2024-03-09T07:55:30.374Z,13.70
2024-03-09T07:58:12.735Z,14.15
2024-03-09T08:00:47.162Z,14.68
2024-03-09T08:03:15.437Z,13.95
2024-03-09T08:05:43.401Z,13.65
2024-03-09T08:08:12.029Z,14.38
2024-03-09T08:10:49.048Z,12.80
2024-03-09T08:13:18.623Z,12.68
2024-03-09T08:15:47.795Z,14.73
2024-03-09T08:18:15.029Z,13.80
2024-03-09T08:20:43.011Z,15.32
2024-03-09T08:23:10.289Z,14.07
2024-03-09T08:25:37.923Z,13.73
2024-03-09T08:28:05.982Z,14.35
2024-03-09T08:30:33.308Z,13.27
2024-03-09T08:33:02.813Z,14.60
2024-03-09T08:35:33.272Z,13.18
2024-03-09T08:38:00.741Z,12.98
2024-03-09T08:40:28.199Z,13.65
2024-03-09T08:42:56.495Z,13.05
2024-03-09T08:45:25.481Z,11.98
2024-03-09T08:47:55.296Z,13.10
2024-03-09T08:50:26.641Z,12.20
2024-03-09T08:52:54.400Z,11.63
2024-03-09T08:55:23.264Z,12.65
2024-03-09T08:57:51.320Z,11.65
2024-03-09T09:00:26.484Z,12.20
2024-03-09T09:02:58.374Z,11.82
2024-03-09T09:05:29.107Z,12.93
2024-03-09T09:07:57.489Z,11.60
2024-03-09T09:10:26.811Z,11.38
2024-03-09T09:12:55.713Z,10.52
2024-03-09T09:15:26.116Z,11.20
2024-03-09T09:17:55.272Z,10.70
2024-03-09T09:20:22.582Z,12.25
2024-03-09T09:22:52.321Z,10.60
2024-03-09T09:25:28.296Z,9.90
2024-03-09T09:27:58.326Z,10.60
2024-03-09T09:30:27.665Z,11.02
2024-03-09T09:32:54.933Z,9.07
2024-03-09T09:35:22.452Z,9.27
2024-03-09T09:37:51.182Z,9.45
2024-03-09T09:40:21.604Z,9.02
2024-03-09T09:42:49.631Z,9.05
2024-03-09T09:45:23.222Z,9.00
2024-03-09T09:47:50.787Z,8.48
2024-03-09T09:50:21.087Z,8.85
2024-03-09T09:52:51.319Z,9.25
2024-03-09T09:55:21.115Z,8.00
2024-03-09T09:57:48.487Z,8.52
2024-03-09T10:00:16.412Z,7.38
2024-03-09T10:02:43.619Z,7.50
2024-03-09T10:05:14.589Z,8.73
2024-03-09T10:07:59.474Z,8.82
2024-03-09T10:10:32.430Z,8.50
2024-03-09T10:13:10.364Z,8.98
2024-03-09T10:15:39.632Z,8.38
2024-03-09T10:18:07.610Z,8.38
2024-03-09T10:20:36.634Z,7.35
2024-03-09T10:23:06.575Z,7.75
2024-03-09T10:25:37.375Z,7.75
2024-03-09T10:28:06.645Z,7.90
2024-03-09T10:30:34.475Z,8.32
2024-03-09T10:33:01.721Z,8.40
2024-03-09T10:35:28.944Z,7.47
2024-03-09T10:37:56.825Z,7.75
2024-03-09T10:40:27.020Z,7.90
2024-03-09T10:42:55.439Z,7.75
2024-03-09T10:45:26.572Z,7.63
2024-03-09T10:47:55.652Z,7.88
2024-03-09T10:50:25.451Z,7.40
2024-03-09T10:53:14.906Z,7.55
2024-03-09T10:55:54.916Z,6.32
2024-03-09T10:58:29.449Z,6.85
2024-03-09T11:00:57.940Z,6.75
2024-03-09T11:11:05.986Z,6.43
2024-03-09T11:13:33.681Z,5.90
2024-03-09T11:16:00.929Z,7.05
2024-03-09T11:18:28.371Z,6.63
2024-03-09T11:21:02.883Z,6.68
2024-03-09T11:23:32.569Z,6.40
2024-03-09T11:26:00.580Z,6.50
2024-03-09T11:28:53.245Z,6.22
2024-03-09T11:31:27.481Z,5.78
2024-03-09T11:33:59.531Z,5.70
2024-03-09T11:36:47.387Z,6.57
2024-03-09T11:39:15.495Z,6.90
2024-03-09T11:41:45.867Z,4.78
2024-03-09T11:44:17.782Z,5.38
2024-03-09T11:46:44.920Z,5.18
2024-03-09T11:49:12.093Z,5.13
2024-03-09T11:51:40.789Z,5.30
2024-03-09T11:54:10.999Z,5.97
2024-03-09T11:56:42.432Z,4.40
2024-03-09T11:59:12.319Z,4.28
2024-03-09T12:01:41.616Z,4.40
2024-03-09T12:04:09.832Z,5.60
2024-03-09T12:06:42.024Z,4.38
2024-03-09T12:09:11.902Z,4.43
2024-03-09T12:11:43.712Z,5.03
2024-03-09T12:14:11.180Z,5.72
2024-03-09T12:16:38.941Z,5.13
2024-03-09T12:19:08.212Z,5.10
2024-03-09T12:21:39.931Z,4.53
2024-03-09T12:24:08.397Z,4.70
2024-03-09T12:26:35.550Z,4.80
2024-03-09T12:29:04.922Z,3.83
2024-03-09T12:31:33.320Z,4.28
2024-03-09T12:34:00.693Z,4.35
2024-03-09T12:36:29.699Z,4.93
2024-03-09T12:39:10.665Z,4.40
2024-03-09T12:41:41.735Z,4.38
2024-03-09T12:44:11.729Z,4.65
2024-03-09T12:46:41.578Z,4.18
2024-03-09T12:49:13.293Z,4.40
2024-03-09T12:51:43.507Z,4.60
2024-03-09T12:54:11.762Z,4.10
2024-03-09T12:56:40.152Z,4.50
2024-03-09T12:59:12.850Z,4.47
2024-03-09T13:01:45.901Z,4.45
2024-03-09T13:04:13.513Z,4.82
2024-03-09T13:06:43.307Z,4.40
2024-03-09T13:09:19.914Z,3.85
2024-03-09T13:11:48.440Z,4.20
2024-03-09T13:14:21.912Z,4.15
2024-03-09T13:16:51.058Z,4.18
2024-03-09T13:19:18.655Z,4.35
2024-03-09T13:21:53.591Z,4.03
2024-03-09T13:24:24.684Z,4.38
2024-03-09T13:27:07.051Z,3.60
2024-03-09T13:29:34.199Z,3.70
2024-03-09T13:32:03.561Z,4.13
2024-03-09T13:34:32.386Z,3.70
2024-03-09T13:37:01.492Z,3.47
2024-03-09T13:39:35.901Z,3.53
2024-03-09T13:42:10.723Z,3.42
2024-03-09T13:44:38.674Z,4.00
2024-03-09T13:47:07.203Z,4.55
2024-03-09T13:49:34.741Z,3.95
2024-03-09T13:52:04.277Z,4.20
2024-03-09T13:54:31.468Z,3.92
2024-03-09T13:56:58.554Z,3.67
2024-03-09T13:59:25.905Z,3.53
2024-03-09T14:01:53.342Z,3.45
2024-03-09T14:04:24.994Z,3.65
2024-03-09T14:07:06.762Z,3.80
2024-03-09T14:09:50.118Z,3.65
2024-03-09T14:12:21.386Z,3.00
2024-03-09T14:14:53.785Z,3.70
2024-03-09T14:17:21.787Z,3.63
2024-03-09T14:19:49.104Z,3.03
2024-03-09T14:22:16.844Z,2.75
2024-03-09T14:24:48.515Z,3.15
2024-03-09T14:27:21.767Z,2.65
2024-03-09T14:29:49.777Z,2.63
2024-03-09T14:32:20.153Z,2.53
2024-03-09T14:34:47.491Z,2.15
2024-03-09T14:37:14.616Z,2.33
2024-03-09T14:39:44.459Z,2.80
2024-03-09T14:42:19.232Z,2.35
2024-03-09T14:44:46.837Z,2.40
2024-03-09T14:47:15.168Z,2.80
2024-03-09T14:49:43.422Z,2.70
2024-03-09T14:52:13.827Z,2.80
2024-03-09T14:54:41.206Z,2.90
2024-03-09T14:57:08.907Z,2.60
2024-03-09T14:59:37.781Z,2.53
2024-03-09T15:02:09.039Z,2.40
2024-03-09T15:04:36.296Z,2.47
2024-03-09T15:07:07.144Z,2.70
2024-03-09T15:09:34.440Z,2.83
2024-03-09T15:12:01.610Z,2.88
2024-03-09T15:14:28.967Z,2.67
2024-03-09T15:17:06.272Z,2.60
2024-03-09T15:19:33.624Z,2.55
2024-03-09T15:22:02.317Z,2.40
2024-03-09T15:24:29.576Z,2.15
2024-03-09T15:26:57.024Z,2.63
2024-03-09T15:29:25.253Z,2.88
2024-03-09T15:31:52.782Z,2.70
2024-03-09T15:34:21.297Z,2.22
2024-03-09T15:36:48.897Z,2.60
2024-03-09T15:39:16.065Z,2.38
2024-03-09T15:41:43.757Z,2.72
2024-03-09T15:44:10.870Z,2.22
2024-03-09T15:46:38.189Z,2.67
2024-03-09T15:49:07.311Z,2.90
2024-03-09T15:51:37.289Z,2.58
2024-03-09T15:54:05.239Z,2.22
2024-03-09T15:56:34.752Z,1.70
2024-03-09T15:59:05.963Z,2.05
2024-03-09T16:01:36.907Z,1.92
2024-03-09T16:04:11.427Z,1.73
2024-03-09T16:06:40.396Z,1.92
2024-03-09T16:09:13.582Z,1.90
2024-03-09T16:11:42.766Z,2.00
2024-03-09T16:14:13.798Z,1.92
2024-03-09T16:16:41.627Z,1.85
2024-03-09T16:19:08.991Z,2.17
2024-03-09T16:21:38.709Z,2.10
2024-03-09T16:24:08.995Z,2.22
2024-03-09T16:26:36.443Z,1.80
2024-03-09T16:29:06.242Z,2.08
2024-03-09T16:31:37.291Z,1.77
2024-03-09T16:34:08.013Z,1.77
2024-03-09T16:36:35.621Z,2.40
2024-03-09T16:39:04.635Z,2.20
2024-03-09T16:41:34.306Z,1.80
2024-03-09T16:44:05.016Z,1.80
2024-03-09T16:46:32.727Z,1.80
2024-03-09T16:49:00.015Z,1.95
2024-03-09T16:51:27.140Z,2.08
2024-03-09T16:53:54.920Z,1.75
2024-03-09T16:56:22.548Z,2.20
2024-03-09T16:58:51.299Z,1.92
2024-03-09T17:01:18.612Z,2.05
2024-03-09T17:03:47.996Z,2.92
2024-03-09T17:06:17.420Z,2.22
2024-03-09T17:08:45.716Z,2.58
2024-03-09T17:11:15.649Z,2.40
2024-03-09T17:13:48.517Z,1.98
2024-03-09T17:16:19.337Z,2.72
2024-03-09T17:18:49.430Z,2.20
2024-03-09T17:21:18.435Z,2.50
2024-03-09T17:23:47.071Z,2.42
2024-03-09T17:26:21.539Z,2.30
2024-03-09T17:28:52.661Z,2.25
2024-03-09T17:31:22.282Z,2.13
2024-03-09T17:33:50.006Z,2.05
2024-03-09T17:36:18.634Z,2.70
2024-03-09T17:38:49.146Z,2.72
2024-03-09T17:41:17.324Z,2.83
2024-03-09T17:43:44.660Z,2.40
2024-03-09T17:46:11.806Z,3.10
2024-03-09T17:48:42.420Z,3.10
2024-03-09T17:51:13.178Z,3.60
2024-03-09T17:53:40.413Z,3.63
2024-03-09T17:56:07.703Z,2.97
2024-03-09T17:58:34.980Z,3.03
2024-03-09T18:01:06.172Z,2.85
2024-03-09T18:03:33.569Z,3.13
2024-03-09T18:06:02.203Z,2.58
2024-03-09T18:08:34.975Z,3.28
2024-03-09T18:11:03.217Z,2.93
2024-03-09T18:13:31.232Z,2.78
2024-03-09T18:15:59.818Z,2.72
2024-03-09T18:18:27.021Z,3.00
2024-03-09T18:20:55.472Z,3.10
2024-03-09T18:23:24.328Z,3.17
2024-03-09T18:25:53.227Z,3.35
2024-03-09T18:28:20.501Z,3.47
2024-03-09T18:30:47.700Z,2.58
2024-03-09T18:33:16.480Z,3.10
2024-03-09T18:35:43.879Z,2.72
2024-03-09T18:38:15.508Z,2.78
2024-03-09T18:40:44.459Z,2.60
2024-03-09T18:43:11.694Z,3.10
2024-03-09T18:45:38.967Z,2.85
2024-03-09T18:48:07.428Z,2.88
2024-03-09T18:50:40.103Z,2.97
2024-03-09T18:53:07.212Z,3.17
2024-03-09T18:55:38.704Z,3.30
2024-03-09T18:58:09.734Z,2.78
2024-03-09T19:00:37.803Z,3.30
2024-03-09T19:03:08.090Z,3.05
2024-03-09T19:05:35.583Z,2.67
2024-03-09T19:08:05.494Z,2.92
2024-03-09T19:10:33.843Z,2.83
2024-03-09T19:13:05.514Z,2.60
2024-03-09T19:15:36.583Z,2.70
2024-03-09T19:18:04.985Z,2.45
2024-03-09T19:20:36.201Z,2.47
2024-03-09T19:23:04.509Z,2.42
2024-03-09T19:25:32.153Z,1.92
2024-03-09T19:28:00.097Z,1.90
2024-03-09T19:30:27.860Z,1.92
2024-03-09T19:32:56.823Z,2.33
2024-03-09T19:35:27.096Z,1.60
2024-03-09T19:37:59.311Z,1.90
2024-03-09T19:40:27.973Z,1.98
2024-03-09T19:42:56.286Z,1.88
2024-03-09T19:45:25.201Z,1.35
2024-03-09T19:47:53.428Z,1.67
2024-03-09T19:50:22.783Z,1.27
2024-03-09T19:52:50.638Z,1.60
2024-03-09T19:55:20.616Z,1.50
2024-03-09T19:57:48.987Z,1.70
2024-03-09T20:00:24.862Z,1.63
2024-03-09T20:02:53.836Z,1.70
2024-03-09T20:05:23.418Z,1.65
2024-03-09T20:07:57.208Z,1.70
2024-03-09T20:10:26.711Z,2.90
2024-03-09T20:12:57.631Z,1.55
2024-03-09T20:15:28.365Z,1.83
2024-03-09T20:17:56.584Z,1.70
2024-03-09T20:20:28.353Z,1.63
2024-03-09T20:22:56.264Z,1.73
2024-03-09T20:25:27.944Z,1.70
2024-03-09T20:27:56.568Z,1.65
2024-03-09T20:30:24.534Z,1.60
2024-03-09T20:32:52.226Z,1.35
2024-03-09T20:35:20.048Z,1.10
2024-03-09T20:37:49.509Z,1.02
2024-03-09T20:40:18.475Z,1.60
2024-03-09T20:42:49.491Z,1.40
2024-03-09T20:45:18.612Z,0.93
2024-03-09T20:47:46.514Z,1.20
2024-03-09T20:50:15.095Z,1.70
2024-03-09T20:52:43.744Z,1.40
2024-03-09T20:55:12.729Z,1.13
2024-03-09T20:57:39.917Z,1.00
2024-03-09T21:00:11.526Z,1.00
2024-03-09T21:02:40.820Z,1.40
2024-03-09T21:05:09.294Z,1.10
2024-03-09T21:07:36.622Z,1.27
2024-03-09T21:10:04.532Z,1.20
2024-03-09T21:12:33.284Z,1.20
2024-03-09T21:15:00.556Z,1.63
2024-03-09T21:17:28.356Z,1.50
2024-03-09T21:19:55.703Z,1.38
2024-03-09T21:22:23.000Z,1.30
2024-03-09T21:24:51.698Z,1.23
2024-03-09T21:27:18.833Z,1.17
2024-03-09T21:29:47.225Z,1.23
2024-03-09T21:32:14.308Z,1.15
2024-03-09T21:34:41.497Z,1.15
2024-03-09T21:37:10.823Z,0.98
2024-03-09T21:39:38.094Z,1.35
2024-03-09T21:42:07.293Z,0.80
2024-03-09T21:44:34.398Z,0.90
2024-03-09T21:47:03.041Z,1.35
2024-03-09T21:49:31.877Z,1.15
2024-03-09T21:51:59.785Z,0.93
2024-03-09T21:54:27.008Z,1.15
2024-03-09T21:56:54.091Z,1.20
2024-03-09T21:59:23.400Z,0.90
2024-03-09T22:01:50.496Z,0.60
2024-03-09T22:04:19.011Z,0.70
2024-03-09T22:06:46.142Z,0.82
2024-03-09T22:09:14.005Z,0.80
2024-03-09T22:11:41.165Z,1.00
2024-03-09T22:14:08.688Z,0.85
2024-03-09T22:16:35.772Z,0.93
2024-03-09T22:19:02.893Z,0.70
2024-03-09T22:21:31.547Z,0.55
2024-03-09T22:23:58.803Z,1.05
2024-03-09T22:26:28.496Z,1.20
2024-03-09T22:28:56.933Z,1.33
2024-03-09T22:31:26.470Z,1.50
2024-03-09T22:33:54.791Z,1.42
2024-03-09T22:36:22.227Z,2.20
2024-03-09T22:38:50.897Z,1.10
2024-03-09T22:41:18.407Z,1.50
2024-03-09T22:43:45.585Z,1.42
2024-03-09T22:46:12.688Z,0.85
2024-03-09T22:48:39.917Z,1.02
2024-03-09T22:51:07.764Z,1.30
2024-03-09T22:53:35.060Z,1.33
2024-03-09T22:56:04.491Z,1.17
2024-03-09T22:58:32.369Z,1.40
2024-03-09T23:01:22.336Z,1.67
2024-03-09T23:03:49.613Z,1.50
2024-03-09T23:06:17.211Z,1.67
2024-03-09T23:08:44.836Z,1.13
2024-03-09T23:11:14.268Z,1.17
2024-03-09T23:13:42.107Z,1.27
2024-03-09T23:16:09.438Z,1.80
2024-03-09T23:18:37.726Z,1.15
2024-03-09T23:21:05.234Z,1.33
2024-03-09T23:23:32.383Z,1.63
2024-03-09T23:25:59.518Z,1.50
2024-03-09T23:28:28.060Z,1.63
2024-03-09T23:30:55.217Z,1.58
2024-03-09T23:33:24.085Z,1.25
2024-03-09T23:35:51.320Z,1.50
2024-03-09T23:38:20.109Z,1.23
2024-03-09T23:40:47.348Z,1.48
2024-03-09T23:43:14.527Z,2.00
2024-03-09T23:45:42.926Z,1.33
2024-03-09T23:48:10.131Z,1.50
2024-03-09T23:50:37.489Z,1.60
2024-03-09T23:53:04.958Z,1.20
2024-03-09T23:55:32.703Z,1.20
2024-03-09T23:57:59.815Z,1.20
